sensor_id;sensor_type;location;lat;lon;timestamp;P1;durP1;ratioP1;P2;durP2;ratioP2
69386;SDS011;56575;48.942;8.404;2023-01-08T00:04:42;9.90;;;4.30;;
69386;SDS011;56575;48.942;8.404;2023-01-08T00:07:07;8.73;;;4.07;;
69386;SDS011;56575;48.942;8.404;2023-01-08T00:09:33;5.97;;;3.28;;
69386;SDS011;56575;48.942;8.404;2023-01-08T00:14:56;5.88;;;2.83;;
69386;SDS011;56575;48.942;8.404;2023-01-08T00:17:23;7.63;;;3.40;;
69386;SDS011;56575;48.942;8.404;2023-01-08T00:19:49;5.40;;;3.03;;
69386;SDS011;56575;48.942;8.404;2023-01-08T00:22:14;6.73;;;2.97;;
69386;SDS011;56575;48.942;8.404;2023-01-08T00:24:39;7.83;;;2.97;;
69386;SDS011;56575;48.942;8.404;2023-01-08T00:27:20;5.97;;;3.00;;
69386;SDS011;56575;48.942;8.404;2023-01-08T00:29:51;4.53;;;2.63;;
69386;SDS011;56575;48.942;8.404;2023-01-08T00:32:17;5.00;;;2.53;;
69386;SDS011;56575;48.942;8.404;2023-01-08T00:34:42;5.50;;;2.67;;
69386;SDS011;56575;48.942;8.404;2023-01-08T00:37:07;7.53;;;3.07;;
69386;SDS011;56575;48.942;8.404;2023-01-08T00:39:33;5.88;;;2.53;;
69386;SDS011;56575;48.942;8.404;2023-01-08T00:41:59;7.27;;;2.87;;
69386;SDS011;56575;48.942;8.404;2023-01-08T00:44:29;5.82;;;2.83;;
69386;SDS011;56575;48.942;8.404;2023-01-08T00:46:56;7.57;;;3.03;;
69386;SDS011;56575;48.942;8.404;2023-01-08T00:49:22;6.18;;;2.80;;
69386;SDS011;56575;48.942;8.404;2023-01-08T00:51:48;5.72;;;2.20;;
69386;SDS011;56575;48.942;8.404;2023-01-08T00:54:13;4.70;;;2.43;;
69386;SDS011;56575;48.942;8.404;2023-01-08T00:56:39;5.28;;;2.13;;
69386;SDS011;56575;48.942;8.404;2023-01-08T00:59:04;5.00;;;2.33;;
69386;SDS011;56575;48.942;8.404;2023-01-08T01:01:29;4.93;;;2.40;;
69386;SDS011;56575;48.942;8.404;2023-01-08T01:03:55;4.97;;;2.40;;
69386;SDS011;56575;48.942;8.404;2023-01-08T01:06:20;4.77;;;2.50;;
69386;SDS011;56575;48.942;8.404;2023-01-08T01:08:45;6.03;;;2.50;;
69386;SDS011;56575;48.942;8.404;2023-01-08T01:11:21;3.70;;;2.07;;
69386;SDS011;56575;48.942;8.404;2023-01-08T01:13:49;4.10;;;2.22;;
69386;SDS011;56575;48.942;8.404;2023-01-08T01:16:26;6.82;;;2.65;;
69386;SDS011;56575;48.942;8.404;2023-01-08T01:18:52;3.80;;;2.37;;
69386;SDS011;56575;48.942;8.404;2023-01-08T01:21:25;4.03;;;2.38;;
69386;SDS011;56575;48.942;8.404;2023-01-08T01:27:11;4.07;;;2.28;;
69386;SDS011;56575;48.942;8.404;2023-01-08T01:29:36;3.40;;;1.70;;
69386;SDS011;56575;48.942;8.404;2023-01-08T01:32:04;4.53;;;2.20;;
69386;SDS011;56575;48.942;8.404;2023-01-08T01:34:30;5.03;;;2.03;;
69386;SDS011;56575;48.942;8.404;2023-01-08T01:37:11;6.23;;;2.10;;
69386;SDS011;56575;48.942;8.404;2023-01-08T01:39:40;6.35;;;2.17;;
69386;SDS011;56575;48.942;8.404;2023-01-08T01:42:52;5.15;;;2.33;;
69386;SDS011;56575;48.942;8.404;2023-01-08T01:52:58;3.60;;;1.95;;
69386;SDS011;56575;48.942;8.404;2023-01-08T01:56:03;4.38;;;2.20;;
69386;SDS011;56575;48.942;8.404;2023-01-08T01:58:34;4.60;;;2.15;;
69386;SDS011;56575;48.942;8.404;2023-01-08T02:01:04;3.65;;;2.08;;
69386;SDS011;56575;48.942;8.404;2023-01-08T02:03:32;5.73;;;2.40;;
69386;SDS011;56575;48.942;8.404;2023-01-08T02:09:47;3.60;;;1.90;;
69386;SDS011;56575;48.942;8.404;2023-01-08T02:12:30;4.40;;;2.17;;
69386;SDS011;56575;48.942;8.404;2023-01-08T02:15:04;4.60;;;2.13;;
69386;SDS011;56575;48.942;8.404;2023-01-08T02:23:11;3.60;;;2.15;;
69386;SDS011;56575;48.942;8.404;2023-01-08T02:28:33;6.00;;;2.30;;
69386;SDS011;56575;48.942;8.404;2023-01-08T02:31:15;5.50;;;2.50;;
69386;SDS011;56575;48.942;8.404;2023-01-08T02:33:43;4.57;;;2.33;;
69386;SDS011;56575;48.942;8.404;2023-01-08T02:36:23;4.90;;;2.40;;
69386;SDS011;56575;48.942;8.404;2023-01-08T02:41:18;4.27;;;2.00;;
69386;SDS011;56575;48.942;8.404;2023-01-08T02:43:51;4.97;;;2.42;;
69386;SDS011;56575;48.942;8.404;2023-01-08T02:46:23;3.27;;;1.80;;
69386;SDS011;56575;48.942;8.404;2023-01-08T02:48:53;4.93;;;2.13;;
69386;SDS011;56575;48.942;8.404;2023-01-08T02:51:28;3.85;;;2.00;;
69386;SDS011;56575;48.942;8.404;2023-01-08T02:53:58;5.78;;;2.42;;
69386;SDS011;56575;48.942;8.404;2023-01-08T02:56:28;4.78;;;2.20;;
69386;SDS011;56575;48.942;8.404;2023-01-08T02:58:58;4.60;;;2.10;;
69386;SDS011;56575;48.942;8.404;2023-01-08T03:01:24;4.30;;;2.15;;
69386;SDS011;56575;48.942;8.404;2023-01-08T03:03:52;3.60;;;2.20;;
69386;SDS011;56575;48.942;8.404;2023-01-08T03:06:22;4.47;;;1.90;;
69386;SDS011;56575;48.942;8.404;2023-01-08T03:08:49;7.95;;;2.50;;
69386;SDS011;56575;48.942;8.404;2023-01-08T03:11:17;5.43;;;2.17;;
69386;SDS011;56575;48.942;8.404;2023-01-08T03:16:23;4.13;;;2.10;;
69386;SDS011;56575;48.942;8.404;2023-01-08T03:19:03;3.70;;;1.92;;
69386;SDS011;56575;48.942;8.404;2023-01-08T03:21:41;3.38;;;2.20;;
69386;SDS011;56575;48.942;8.404;2023-01-08T03:24:12;3.03;;;1.90;;
69386;SDS011;56575;48.942;8.404;2023-01-08T03:26:49;5.45;;;2.10;;
69386;SDS011;56575;48.942;8.404;2023-01-08T03:29:18;4.70;;;2.20;;
69386;SDS011;56575;48.942;8.404;2023-01-08T03:31:49;3.95;;;2.00;;
69386;SDS011;56575;48.942;8.404;2023-01-08T03:34:22;4.05;;;2.30;;
69386;SDS011;56575;48.942;8.404;2023-01-08T03:36:49;3.87;;;2.27;;
69386;SDS011;56575;48.942;8.404;2023-01-08T03:39:29;5.72;;;2.50;;
69386;SDS011;56575;48.942;8.404;2023-01-08T03:42:03;4.63;;;2.72;;
69386;SDS011;56575;48.942;8.404;2023-01-08T03:44:32;6.32;;;3.03;;
69386;SDS011;56575;48.942;8.404;2023-01-08T03:46:57;5.40;;;2.70;;
69386;SDS011;56575;48.942;8.404;2023-01-08T03:49:23;5.73;;;2.57;;
69386;SDS011;56575;48.942;8.404;2023-01-08T03:51:50;5.03;;;2.55;;
69386;SDS011;56575;48.942;8.404;2023-01-08T03:54:17;4.90;;;2.70;;
69386;SDS011;56575;48.942;8.404;2023-01-08T03:56:54;4.72;;;2.50;;
69386;SDS011;56575;48.942;8.404;2023-01-08T03:59:23;3.97;;;2.10;;
69386;SDS011;56575;48.942;8.404;2023-01-08T04:01:49;4.60;;;2.50;;
69386;SDS011;56575;48.942;8.404;2023-01-08T04:04:14;4.53;;;2.20;;
69386;SDS011;56575;48.942;8.404;2023-01-08T04:06:40;4.40;;;2.10;;
69386;SDS011;56575;48.942;8.404;2023-01-08T04:09:07;4.03;;;2.55;;
69386;SDS011;56575;48.942;8.404;2023-01-08T04:11:33;3.97;;;2.30;;
69386;SDS011;56575;48.942;8.404;2023-01-08T04:16:56;3.63;;;2.00;;
69386;SDS011;56575;48.942;8.404;2023-01-08T04:19:21;6.23;;;2.40;;
69386;SDS011;56575;48.942;8.404;2023-01-08T04:21:50;4.37;;;2.27;;
69386;SDS011;56575;48.942;8.404;2023-01-08T04:24:16;5.32;;;2.35;;
69386;SDS011;56575;48.942;8.404;2023-01-08T04:26:42;6.00;;;2.40;;
69386;SDS011;56575;48.942;8.404;2023-01-08T04:29:08;6.50;;;2.50;;
69386;SDS011;56575;48.942;8.404;2023-01-08T04:31:33;5.47;;;2.70;;
69386;SDS011;56575;48.942;8.404;2023-01-08T04:33:58;7.73;;;3.00;;
69386;SDS011;56575;48.942;8.404;2023-01-08T04:36:53;5.33;;;3.00;;
69386;SDS011;56575;48.942;8.404;2023-01-08T04:40:17;5.20;;;3.10;;
69386;SDS011;56575;48.942;8.404;2023-01-08T04:42:47;6.00;;;3.10;;
69386;SDS011;56575;48.942;8.404;2023-01-08T04:45:19;7.07;;;3.42;;
69386;SDS011;56575;48.942;8.404;2023-01-08T04:51:31;7.85;;;4.03;;
69386;SDS011;56575;48.942;8.404;2023-01-08T05:03:19;8.43;;;4.40;;
69386;SDS011;56575;48.942;8.404;2023-01-08T05:06:10;9.40;;;4.80;;
69386;SDS011;56575;48.942;8.404;2023-01-08T05:14:32;15.80;;;5.13;;
69386;SDS011;56575;48.942;8.404;2023-01-08T05:17:17;12.60;;;5.37;;
69386;SDS011;56575;48.942;8.404;2023-01-08T05:21:00;10.43;;;5.10;;
69386;SDS011;56575;48.942;8.404;2023-01-08T05:23:33;13.07;;;4.93;;
69386;SDS011;56575;48.942;8.404;2023-01-08T05:25:59;15.50;;;5.83;;
69386;SDS011;56575;48.942;8.404;2023-01-08T05:28:26;12.50;;;5.35;;
69386;SDS011;56575;48.942;8.404;2023-01-08T05:30:51;14.80;;;6.03;;
69386;SDS011;56575;48.942;8.404;2023-01-08T05:39:24;16.30;;;6.20;;
69386;SDS011;56575;48.942;8.404;2023-01-08T05:41:49;16.33;;;6.23;;
69386;SDS011;56575;48.942;8.404;2023-01-08T05:44:16;17.53;;;6.67;;
69386;SDS011;56575;48.942;8.404;2023-01-08T05:46:47;16.73;;;6.72;;
69386;SDS011;56575;48.942;8.404;2023-01-08T05:49:13;22.23;;;7.55;;
69386;SDS011;56575;48.942;8.404;2023-01-08T05:51:38;14.83;;;6.33;;
69386;SDS011;56575;48.942;8.404;2023-01-08T05:54:04;14.73;;;6.50;;
69386;SDS011;56575;48.942;8.404;2023-01-08T05:56:29;16.20;;;7.00;;
69386;SDS011;56575;48.942;8.404;2023-01-08T05:58:56;15.63;;;7.50;;
69386;SDS011;56575;48.942;8.404;2023-01-08T06:01:26;20.55;;;7.80;;
69386;SDS011;56575;48.942;8.404;2023-01-08T06:03:53;21.37;;;8.37;;
69386;SDS011;56575;48.942;8.404;2023-01-08T06:06:19;16.38;;;7.72;;
69386;SDS011;56575;48.942;8.404;2023-01-08T06:08:44;20.30;;;9.00;;
69386;SDS011;56575;48.942;8.404;2023-01-08T06:11:10;17.37;;;7.87;;
69386;SDS011;56575;48.942;8.404;2023-01-08T06:13:36;15.97;;;6.57;;
69386;SDS011;56575;48.942;8.404;2023-01-08T06:16:21;15.52;;;6.43;;
69386;SDS011;56575;48.942;8.404;2023-01-08T06:24:42;14.10;;;6.43;;
69386;SDS011;56575;48.942;8.404;2023-01-08T06:27:07;15.20;;;6.05;;
69386;SDS011;56575;48.942;8.404;2023-01-08T06:33:14;11.30;;;5.45;;
69386;SDS011;56575;48.942;8.404;2023-01-08T06:39:20;13.27;;;5.60;;
69386;SDS011;56575;48.942;8.404;2023-01-08T06:45:10;14.70;;;5.40;;
69386;SDS011;56575;48.942;8.404;2023-01-08T06:47:42;14.05;;;5.20;;
69386;SDS011;56575;48.942;8.404;2023-01-08T06:50:08;12.40;;;5.43;;
69386;SDS011;56575;48.942;8.404;2023-01-08T06:52:33;11.53;;;4.93;;
69386;SDS011;56575;48.942;8.404;2023-01-08T06:54:59;10.65;;;4.88;;
69386;SDS011;56575;48.942;8.404;2023-01-08T06:57:24;12.77;;;4.53;;
69386;SDS011;56575;48.942;8.404;2023-01-08T06:59:50;12.27;;;4.73;;
69386;SDS011;56575;48.942;8.404;2023-01-08T07:02:16;11.63;;;4.40;;
69386;SDS011;56575;48.942;8.404;2023-01-08T07:04:44;12.43;;;4.88;;
69386;SDS011;56575;48.942;8.404;2023-01-08T07:07:11;13.13;;;4.95;;
69386;SDS011;56575;48.942;8.404;2023-01-08T07:09:42;14.27;;;5.45;;
69386;SDS011;56575;48.942;8.404;2023-01-08T07:12:14;13.93;;;5.40;;
69386;SDS011;56575;48.942;8.404;2023-01-08T07:14:42;13.40;;;5.45;;
69386;SDS011;56575;48.942;8.404;2023-01-08T07:17:07;13.95;;;5.68;;
69386;SDS011;56575;48.942;8.404;2023-01-08T07:22:52;12.82;;;5.03;;
69386;SDS011;56575;48.942;8.404;2023-01-08T07:25:17;11.87;;;5.13;;
69386;SDS011;56575;48.942;8.404;2023-01-08T07:27:48;12.93;;;7.60;;
69386;SDS011;56575;48.942;8.404;2023-01-08T07:30:17;16.10;;;9.13;;
69386;SDS011;56575;48.942;8.404;2023-01-08T07:32:43;18.92;;;10.75;;
69386;SDS011;56575;48.942;8.404;2023-01-08T07:35:09;15.67;;;8.33;;
69386;SDS011;56575;48.942;8.404;2023-01-08T07:37:38;19.43;;;6.93;;
69386;SDS011;56575;48.942;8.404;2023-01-08T07:40:06;16.88;;;6.13;;
69386;SDS011;56575;48.942;8.404;2023-01-08T07:42:33;14.43;;;5.75;;
69386;SDS011;56575;48.942;8.404;2023-01-08T07:44:58;14.00;;;5.60;;
69386;SDS011;56575;48.942;8.404;2023-01-08T07:47:23;12.90;;;5.20;;
69386;SDS011;56575;48.942;8.404;2023-01-08T07:49:49;13.33;;;5.43;;
69386;SDS011;56575;48.942;8.404;2023-01-08T07:52:14;16.03;;;5.50;;
69386;SDS011;56575;48.942;8.404;2023-01-08T07:54:39;13.63;;;5.23;;
69386;SDS011;56575;48.942;8.404;2023-01-08T07:57:05;17.17;;;5.40;;
69386;SDS011;56575;48.942;8.404;2023-01-08T07:59:31;17.42;;;6.65;;
69386;SDS011;56575;48.942;8.404;2023-01-08T08:01:56;12.80;;;5.67;;
69386;SDS011;56575;48.942;8.404;2023-01-08T08:04:21;15.30;;;6.17;;
69386;SDS011;56575;48.942;8.404;2023-01-08T08:06:48;15.25;;;6.18;;
69386;SDS011;56575;48.942;8.404;2023-01-08T08:09:13;17.57;;;6.27;;
69386;SDS011;56575;48.942;8.404;2023-01-08T08:11:39;13.43;;;5.60;;
69386;SDS011;56575;48.942;8.404;2023-01-08T08:14:04;21.63;;;6.10;;
69386;SDS011;56575;48.942;8.404;2023-01-08T08:16:30;17.77;;;6.95;;
69386;SDS011;56575;48.942;8.404;2023-01-08T08:19:01;17.37;;;7.17;;
69386;SDS011;56575;48.942;8.404;2023-01-08T08:21:27;14.80;;;6.75;;
69386;SDS011;56575;48.942;8.404;2023-01-08T08:23:53;18.80;;;8.67;;
69386;SDS011;56575;48.942;8.404;2023-01-08T08:26:19;22.08;;;8.50;;
69386;SDS011;56575;48.942;8.404;2023-01-08T08:28:44;18.23;;;8.18;;
69386;SDS011;56575;48.942;8.404;2023-01-08T08:31:10;18.27;;;9.67;;
69386;SDS011;56575;48.942;8.404;2023-01-08T08:33:36;21.73;;;10.27;;
69386;SDS011;56575;48.942;8.404;2023-01-08T08:36:04;16.77;;;6.65;;
69386;SDS011;56575;48.942;8.404;2023-01-08T08:38:29;12.23;;;5.27;;
69386;SDS011;56575;48.942;8.404;2023-01-08T08:40:55;15.48;;;6.35;;
69386;SDS011;56575;48.942;8.404;2023-01-08T08:43:21;14.73;;;6.67;;
69386;SDS011;56575;48.942;8.404;2023-01-08T08:45:47;19.48;;;6.60;;
69386;SDS011;56575;48.942;8.404;2023-01-08T08:48:13;13.43;;;5.63;;
69386;SDS011;56575;48.942;8.404;2023-01-08T08:50:40;16.45;;;6.50;;
69386;SDS011;56575;48.942;8.404;2023-01-08T08:53:06;12.93;;;5.50;;
69386;SDS011;56575;48.942;8.404;2023-01-08T08:55:31;18.75;;;6.38;;
69386;SDS011;56575;48.942;8.404;2023-01-08T08:58:04;18.57;;;7.93;;
69386;SDS011;56575;48.942;8.404;2023-01-08T09:00:32;20.17;;;9.50;;
69386;SDS011;56575;48.942;8.404;2023-01-08T09:03:02;20.23;;;11.32;;
69386;SDS011;56575;48.942;8.404;2023-01-08T09:05:28;17.93;;;7.87;;
69386;SDS011;56575;48.942;8.404;2023-01-08T09:07:54;13.18;;;8.07;;
69386;SDS011;56575;48.942;8.404;2023-01-08T09:10:21;15.90;;;7.50;;
69386;SDS011;56575;48.942;8.404;2023-01-08T09:13:20;21.10;;;8.65;;
69386;SDS011;56575;48.942;8.404;2023-01-08T09:15:45;13.67;;;5.73;;
69386;SDS011;56575;48.942;8.404;2023-01-08T09:18:10;12.83;;;5.67;;
69386;SDS011;56575;48.942;8.404;2023-01-08T09:20:36;11.90;;;4.77;;
69386;SDS011;56575;48.942;8.404;2023-01-08T09:23:03;15.93;;;5.97;;
69386;SDS011;56575;48.942;8.404;2023-01-08T09:25:38;15.53;;;6.90;;
69386;SDS011;56575;48.942;8.404;2023-01-08T09:28:06;14.48;;;6.35;;
69386;SDS011;56575;48.942;8.404;2023-01-08T09:30:38;13.98;;;5.57;;
69386;SDS011;56575;48.942;8.404;2023-01-08T09:33:05;15.68;;;5.95;;
69386;SDS011;56575;48.942;8.404;2023-01-08T09:35:31;16.40;;;5.70;;
69386;SDS011;56575;48.942;8.404;2023-01-08T09:37:58;19.10;;;6.50;;
69386;SDS011;56575;48.942;8.404;2023-01-08T09:40:25;15.70;;;6.33;;
69386;SDS011;56575;48.942;8.404;2023-01-08T09:43:18;15.60;;;6.47;;
69386;SDS011;56575;48.942;8.404;2023-01-08T09:45:50;13.30;;;6.05;;
69386;SDS011;56575;48.942;8.404;2023-01-08T09:48:19;19.98;;;7.03;;
69386;SDS011;56575;48.942;8.404;2023-01-08T09:50:49;21.48;;;12.05;;
69386;SDS011;56575;48.942;8.404;2023-01-08T09:53:15;42.87;;;26.57;;
69386;SDS011;56575;48.942;8.404;2023-01-08T09:55:42;23.33;;;11.88;;
69386;SDS011;56575;48.942;8.404;2023-01-08T09:58:12;19.73;;;8.63;;
69386;SDS011;56575;48.942;8.404;2023-01-08T10:00:40;23.30;;;10.35;;
69386;SDS011;56575;48.942;8.404;2023-01-08T10:03:08;19.43;;;8.83;;
69386;SDS011;56575;48.942;8.404;2023-01-08T10:05:34;15.85;;;7.90;;
69386;SDS011;56575;48.942;8.404;2023-01-08T10:07:59;10.93;;;5.77;;
69386;SDS011;56575;48.942;8.404;2023-01-08T10:10:25;12.13;;;5.87;;
69386;SDS011;56575;48.942;8.404;2023-01-08T10:12:52;11.00;;;5.85;;
69386;SDS011;56575;48.942;8.404;2023-01-08T10:15:19;13.60;;;6.30;;
69386;SDS011;56575;48.942;8.404;2023-01-08T10:17:49;9.60;;;4.10;;
69386;SDS011;56575;48.942;8.404;2023-01-08T10:20:19;8.30;;;3.88;;
69386;SDS011;56575;48.942;8.404;2023-01-08T10:22:45;6.55;;;3.30;;
69386;SDS011;56575;48.942;8.404;2023-01-08T10:25:13;6.43;;;3.38;;
69386;SDS011;56575;48.942;8.404;2023-01-08T10:27:47;5.83;;;2.57;;
69386;SDS011;56575;48.942;8.404;2023-01-08T10:30:18;5.05;;;2.08;;
69386;SDS011;56575;48.942;8.404;2023-01-08T10:32:47;6.90;;;2.53;;
69386;SDS011;56575;48.942;8.404;2023-01-08T10:35:15;6.00;;;2.88;;
69386;SDS011;56575;48.942;8.404;2023-01-08T10:37:44;4.78;;;2.30;;
69386;SDS011;56575;48.942;8.404;2023-01-08T10:42:49;4.28;;;2.33;;
69386;SDS011;56575;48.942;8.404;2023-01-08T10:45:24;3.08;;;2.00;;
69386;SDS011;56575;48.942;8.404;2023-01-08T10:47:50;4.85;;;1.70;;
69386;SDS011;56575;48.942;8.404;2023-01-08T10:50:24;3.20;;;1.63;;
69386;SDS011;56575;48.942;8.404;2023-01-08T10:52:51;3.33;;;1.70;;
69386;SDS011;56575;48.942;8.404;2023-01-08T10:57:41;3.00;;;1.50;;
69386;SDS011;56575;48.942;8.404;2023-01-08T11:00:36;4.43;;;1.58;;
69386;SDS011;56575;48.942;8.404;2023-01-08T11:03:03;2.30;;;1.30;;
69386;SDS011;56575;48.942;8.404;2023-01-08T11:05:36;2.60;;;1.30;;
69386;SDS011;56575;48.942;8.404;2023-01-08T11:08:04;2.17;;;1.20;;
69386;SDS011;56575;48.942;8.404;2023-01-08T11:10:33;1.70;;;1.20;;
69386;SDS011;56575;48.942;8.404;2023-01-08T11:13:03;2.35;;;1.08;;
69386;SDS011;56575;48.942;8.404;2023-01-08T11:16:22;2.38;;;1.10;;
69386;SDS011;56575;48.942;8.404;2023-01-08T11:18:50;3.40;;;1.10;;
69386;SDS011;56575;48.942;8.404;2023-01-08T11:21:27;2.57;;;0.80;;
69386;SDS011;56575;48.942;8.404;2023-01-08T11:24:17;2.10;;;0.80;;
69386;SDS011;56575;48.942;8.404;2023-01-08T11:27:08;2.80;;;0.90;;
69386;SDS011;56575;48.942;8.404;2023-01-08T11:39:46;1.08;;;0.57;;
69386;SDS011;56575;48.942;8.404;2023-01-08T11:42:19;1.10;;;0.60;;
69386;SDS011;56575;48.942;8.404;2023-01-08T11:45:08;1.05;;;0.50;;
69386;SDS011;56575;48.942;8.404;2023-01-08T11:47:48;1.42;;;0.63;;
69386;SDS011;56575;48.942;8.404;2023-01-08T11:50:24;1.02;;;0.60;;
69386;SDS011;56575;48.942;8.404;2023-01-08T11:53:14;1.77;;;0.70;;
69386;SDS011;56575;48.942;8.404;2023-01-08T11:56:04;1.17;;;0.73;;
69386;SDS011;56575;48.942;8.404;2023-01-08T12:04:08;1.77;;;0.30;;
69386;SDS011;56575;48.942;8.404;2023-01-08T12:09:41;1.13;;;0.50;;
69386;SDS011;56575;48.942;8.404;2023-01-08T12:12:30;1.88;;;0.60;;
69386;SDS011;56575;48.942;8.404;2023-01-08T12:15:18;1.38;;;0.43;;
69386;SDS011;56575;48.942;8.404;2023-01-08T12:18:17;1.10;;;0.60;;
69386;SDS011;56575;48.942;8.404;2023-01-08T12:20:59;1.08;;;0.60;;
69386;SDS011;56575;48.942;8.404;2023-01-08T12:23:56;1.17;;;0.40;;
69386;SDS011;56575;48.942;8.404;2023-01-08T12:26:57;2.10;;;0.73;;
69386;SDS011;56575;48.942;8.404;2023-01-08T12:32:30;1.52;;;0.70;;
69386;SDS011;56575;48.942;8.404;2023-01-08T12:35:13;1.45;;;0.70;;
69386;SDS011;56575;48.942;8.404;2023-01-08T12:37:47;2.67;;;0.87;;
69386;SDS011;56575;48.942;8.404;2023-01-08T12:40:27;1.90;;;0.90;;
69386;SDS011;56575;48.942;8.404;2023-01-08T12:43:03;1.30;;;0.85;;
69386;SDS011;56575;48.942;8.404;2023-01-08T12:45:43;1.90;;;0.85;;
69386;SDS011;56575;48.942;8.404;2023-01-08T12:48:17;2.10;;;1.20;;
69386;SDS011;56575;48.942;8.404;2023-01-08T12:53:29;2.10;;;1.08;;
69386;SDS011;56575;48.942;8.404;2023-01-08T13:01:47;3.00;;;1.10;;
69386;SDS011;56575;48.942;8.404;2023-01-08T13:04:21;2.10;;;0.80;;
69386;SDS011;56575;48.942;8.404;2023-01-08T13:06:50;1.83;;;0.80;;
69386;SDS011;56575;48.942;8.404;2023-01-08T13:09:37;1.85;;;0.95;;
69386;SDS011;56575;48.942;8.404;2023-01-08T13:12:03;2.30;;;0.63;;
69386;SDS011;56575;48.942;8.404;2023-01-08T13:14:38;1.90;;;0.80;;
69386;SDS011;56575;48.942;8.404;2023-01-08T13:17:14;1.77;;;0.75;;
69386;SDS011;56575;48.942;8.404;2023-01-08T13:19:58;1.73;;;0.70;;
69386;SDS011;56575;48.942;8.404;2023-01-08T13:22:29;1.87;;;0.77;;
69386;SDS011;56575;48.942;8.404;2023-01-08T13:25:07;1.52;;;0.73;;
69386;SDS011;56575;48.942;8.404;2023-01-08T13:27:34;1.77;;;0.80;;
69386;SDS011;56575;48.942;8.404;2023-01-08T13:30:00;0.97;;;0.50;;
69386;SDS011;56575;48.942;8.404;2023-01-08T13:35:25;1.73;;;0.52;;
69386;SDS011;56575;48.942;8.404;2023-01-08T13:43:23;1.15;;;0.63;;
69386;SDS011;56575;48.942;8.404;2023-01-08T13:48:24;1.40;;;0.50;;
69386;SDS011;56575;48.942;8.404;2023-01-08T13:50:52;3.08;;;0.57;;
69386;SDS011;56575;48.942;8.404;2023-01-08T13:53:18;2.33;;;0.60;;
69386;SDS011;56575;48.942;8.404;2023-01-08T13:55:48;1.05;;;0.47;;
69386;SDS011;56575;48.942;8.404;2023-01-08T13:59:05;2.67;;;0.77;;
69386;SDS011;56575;48.942;8.404;2023-01-08T14:01:54;1.93;;;0.50;;
69386;SDS011;56575;48.942;8.404;2023-01-08T14:07:38;1.55;;;0.52;;
69386;SDS011;56575;48.942;8.404;2023-01-08T14:10:56;0.43;;;0.30;;
69386;SDS011;56575;48.942;8.404;2023-01-08T14:13:25;1.33;;;0.50;;
69386;SDS011;56575;48.942;8.404;2023-01-08T14:15:58;2.25;;;0.50;;
69386;SDS011;56575;48.942;8.404;2023-01-08T14:18:26;1.08;;;0.40;;
69386;SDS011;56575;48.942;8.404;2023-01-08T14:20:52;0.68;;;0.30;;
69386;SDS011;56575;48.942;8.404;2023-01-08T14:23:22;0.77;;;0.40;;
69386;SDS011;56575;48.942;8.404;2023-01-08T14:25:52;0.90;;;0.28;;
69386;SDS011;56575;48.942;8.404;2023-01-08T14:28:19;0.43;;;0.20;;
69386;SDS011;56575;48.942;8.404;2023-01-08T14:30:47;0.57;;;0.30;;
69386;SDS011;56575;48.942;8.404;2023-01-08T14:33:18;1.02;;;0.40;;
69386;SDS011;56575;48.942;8.404;2023-01-08T14:35:53;1.20;;;0.45;;
69386;SDS011;56575;48.942;8.404;2023-01-08T14:38:19;1.58;;;0.40;;
69386;SDS011;56575;48.942;8.404;2023-01-08T14:41:31;1.33;;;0.53;;
69386;SDS011;56575;48.942;8.404;2023-01-08T14:44:16;1.88;;;0.40;;
69386;SDS011;56575;48.942;8.404;2023-01-08T14:46:52;1.10;;;0.60;;
69386;SDS011;56575;48.942;8.404;2023-01-08T14:49:30;2.15;;;0.70;;
69386;SDS011;56575;48.942;8.404;2023-01-08T14:51:59;0.87;;;0.40;;
69386;SDS011;56575;48.942;8.404;2023-01-08T14:54:30;1.02;;;0.40;;
69386;SDS011;56575;48.942;8.404;2023-01-08T14:57:03;2.53;;;0.70;;
69386;SDS011;56575;48.942;8.404;2023-01-08T14:59:33;2.38;;;0.70;;
69386;SDS011;56575;48.942;8.404;2023-01-08T15:02:04;1.40;;;0.77;;
69386;SDS011;56575;48.942;8.404;2023-01-08T15:04:44;1.33;;;0.70;;
69386;SDS011;56575;48.942;8.404;2023-01-08T15:07:24;1.48;;;0.70;;
69386;SDS011;56575;48.942;8.404;2023-01-08T15:09:54;1.55;;;0.82;;
69386;SDS011;56575;48.942;8.404;2023-01-08T15:12:23;1.35;;;0.60;;
69386;SDS011;56575;48.942;8.404;2023-01-08T15:14:50;3.28;;;1.23;;
69386;SDS011;56575;48.942;8.404;2023-01-08T15:17:17;2.80;;;1.60;;
69386;SDS011;56575;48.942;8.404;2023-01-08T15:19:51;3.38;;;1.52;;
69386;SDS011;56575;48.942;8.404;2023-01-08T15:22:20;4.57;;;1.73;;
69386;SDS011;56575;48.942;8.404;2023-01-08T15:25:00;3.87;;;1.60;;
69386;SDS011;56575;48.942;8.404;2023-01-08T15:27:38;2.92;;;1.48;;
69386;SDS011;56575;48.942;8.404;2023-01-08T15:30:05;5.07;;;1.80;;
69386;SDS011;56575;48.942;8.404;2023-01-08T15:32:51;6.05;;;1.60;;
69386;SDS011;56575;48.942;8.404;2023-01-08T15:35:29;3.75;;;1.45;;
69386;SDS011;56575;48.942;8.404;2023-01-08T15:37:55;2.57;;;0.93;;
69386;SDS011;56575;48.942;8.404;2023-01-08T15:40:20;2.30;;;1.10;;
69386;SDS011;56575;48.942;8.404;2023-01-08T15:42:45;3.17;;;1.40;;
69386;SDS011;56575;48.942;8.404;2023-01-08T15:45:29;6.03;;;1.37;;
69386;SDS011;56575;48.942;8.404;2023-01-08T15:47:57;5.15;;;1.50;;
69386;SDS011;56575;48.942;8.404;2023-01-08T15:50:23;3.67;;;1.92;;
69386;SDS011;56575;48.942;8.404;2023-01-08T15:52:55;5.03;;;2.60;;
69386;SDS011;56575;48.942;8.404;2023-01-08T15:55:22;4.28;;;2.20;;
69386;SDS011;56575;48.942;8.404;2023-01-08T15:57:49;4.85;;;2.00;;
69386;SDS011;56575;48.942;8.404;2023-01-08T16:00:15;4.85;;;2.33;;
69386;SDS011;56575;48.942;8.404;2023-01-08T16:02:43;4.22;;;2.13;;
69386;SDS011;56575;48.942;8.404;2023-01-08T16:05:20;2.70;;;1.40;;
69386;SDS011;56575;48.942;8.404;2023-01-08T16:08:15;3.63;;;1.88;;
69386;SDS011;56575;48.942;8.404;2023-01-08T16:14:12;3.17;;;1.25;;
69386;SDS011;56575;48.942;8.404;2023-01-08T16:17:27;3.88;;;1.30;;
69386;SDS011;56575;48.942;8.404;2023-01-08T16:19:53;3.05;;;1.30;;
69386;SDS011;56575;48.942;8.404;2023-01-08T16:22:23;3.27;;;1.60;;
69386;SDS011;56575;48.942;8.404;2023-01-08T16:25:23;5.15;;;2.75;;
69386;SDS011;56575;48.942;8.404;2023-01-08T16:28:07;4.57;;;2.45;;
69386;SDS011;56575;48.942;8.404;2023-01-08T16:30:33;3.47;;;1.90;;
69386;SDS011;56575;48.942;8.404;2023-01-08T16:32:58;3.80;;;1.97;;
69386;SDS011;56575;48.942;8.404;2023-01-08T16:35:23;5.20;;;2.37;;
69386;SDS011;56575;48.942;8.404;2023-01-08T16:37:52;4.60;;;2.17;;
69386;SDS011;56575;48.942;8.404;2023-01-08T16:40:20;4.18;;;2.20;;
69386;SDS011;56575;48.942;8.404;2023-01-08T16:43:03;5.60;;;2.20;;
69386;SDS011;56575;48.942;8.404;2023-01-08T16:46:28;3.38;;;1.63;;
69386;SDS011;56575;48.942;8.404;2023-01-08T16:48:54;6.90;;;2.55;;
69386;SDS011;56575;48.942;8.404;2023-01-08T16:51:19;4.93;;;2.67;;
69386;SDS011;56575;48.942;8.404;2023-01-08T16:53:50;7.17;;;3.33;;
69386;SDS011;56575;48.942;8.404;2023-01-08T16:56:15;5.78;;;2.70;;
69386;SDS011;56575;48.942;8.404;2023-01-08T16:58:41;5.80;;;3.00;;
69386;SDS011;56575;48.942;8.404;2023-01-08T17:01:07;6.43;;;3.10;;
69386;SDS011;56575;48.942;8.404;2023-01-08T17:03:34;6.13;;;3.13;;
69386;SDS011;56575;48.942;8.404;2023-01-08T17:06:04;4.45;;;2.20;;
69386;SDS011;56575;48.942;8.404;2023-01-08T17:08:35;6.45;;;2.08;;
69386;SDS011;56575;48.942;8.404;2023-01-08T17:11:08;5.73;;;2.47;;
69386;SDS011;56575;48.942;8.404;2023-01-08T17:13:35;5.47;;;2.63;;
69386;SDS011;56575;48.942;8.404;2023-01-08T17:16:04;6.35;;;2.97;;
69386;SDS011;56575;48.942;8.404;2023-01-08T17:18:30;4.88;;;2.50;;
69386;SDS011;56575;48.942;8.404;2023-01-08T17:20:56;5.60;;;2.60;;
69386;SDS011;56575;48.942;8.404;2023-01-08T17:23:21;4.40;;;1.80;;
69386;SDS011;56575;48.942;8.404;2023-01-08T17:25:51;3.22;;;1.50;;